createdAt,value
2023-01-28T00:03:17.695Z,54.42
2023-01-28T00:10:36.022Z,60.10
2023-01-28T00:17:56.364Z,54.15
2023-01-28T00:25:14.943Z,50.47
2023-01-28T00:32:33.581Z,51.38
2023-01-28T00:39:53.245Z,49.33
2023-01-28T00:47:11.466Z,52.40
2023-01-28T00:54:30.244Z,53.70
2023-01-28T01:01:53.039Z,48.38
2023-01-28T01:09:15.554Z,51.63
2023-01-28T01:16:36.450Z,45.58
2023-01-28T01:23:56.063Z,40.35
2023-01-28T01:31:16.035Z,43.40
2023-01-28T01:38:34.352Z,42.78
2023-01-28T01:45:56.609Z,46.22
2023-01-28T01:53:17.779Z,32.90
2023-01-28T02:00:36.167Z,41.35
2023-01-28T02:08:17.588Z,37.13
2023-01-28T02:15:36.125Z,36.05
2023-01-28T02:23:15.864Z,31.20
2023-01-28T02:30:39.348Z,35.70
2023-01-28T02:38:02.017Z,31.15
2023-01-28T02:45:22.872Z,25.53
2023-01-28T02:53:13.423Z,38.83
2023-01-28T03:00:37.939Z,33.13
2023-01-28T03:07:58.080Z,34.63
2023-01-28T03:15:36.390Z,35.45
2023-01-28T03:23:15.298Z,34.05
2023-01-28T03:30:57.297Z,38.28
2023-01-28T03:38:34.239Z,29.73
2023-01-28T03:45:53.025Z,38.33
2023-01-28T03:53:16.821Z,42.22
2023-01-28T04:00:45.421Z,45.42
2023-01-28T04:08:04.582Z,46.67
2023-01-28T04:15:41.556Z,43.15
2023-01-28T04:23:03.155Z,42.55
2023-01-28T04:30:22.086Z,40.25
2023-01-28T04:38:14.826Z,40.67
2023-01-28T04:45:57.835Z,43.15
2023-01-28T05:01:23.755Z,50.45
2023-01-28T05:08:42.485Z,42.83
2023-01-28T05:16:02.466Z,44.90
2023-01-28T05:23:21.183Z,49.08
2023-01-28T05:30:45.985Z,54.13
2023-01-28T05:38:05.657Z,49.03
2023-01-28T05:45:24.068Z,51.53
2023-01-28T05:52:52.377Z,51.20
2023-01-28T06:00:18.447Z,50.40
2023-01-28T06:07:37.564Z,47.80
2023-01-28T06:14:57.949Z,50.35
2023-01-28T06:22:36.041Z,49.65
2023-01-28T06:29:54.315Z,46.17
2023-01-28T06:37:14.211Z,41.08
2023-01-28T06:44:33.951Z,43.65
2023-01-28T06:51:52.752Z,43.85
2023-01-28T06:59:11.178Z,41.90
2023-01-28T07:06:30.958Z,45.10
2023-01-28T07:13:49.178Z,43.13
2023-01-28T07:21:07.567Z,40.42
2023-01-28T07:28:27.179Z,43.95
2023-01-28T07:35:45.439Z,46.53
2023-01-28T07:43:03.727Z,40.50
2023-01-28T07:50:30.682Z,45.25
2023-01-28T07:57:53.696Z,46.17
2023-01-28T08:05:12.048Z,43.95
2023-01-28T08:12:31.868Z,46.83
2023-01-28T08:19:50.060Z,46.20
2023-01-28T08:27:08.597Z,47.58
2023-01-28T08:34:28.151Z,46.03
2023-01-28T08:41:46.980Z,51.65
2023-01-28T08:49:05.415Z,51.42
2023-01-28T08:56:24.954Z,48.08
2023-01-28T09:03:43.262Z,48.28
2023-01-28T09:11:01.832Z,52.03
2023-01-28T09:18:21.531Z,47.80
2023-01-28T09:25:39.936Z,48.33
2023-01-28T09:32:59.579Z,50.50
2023-01-28T09:40:22.500Z,43.13
2023-01-28T09:47:43.676Z,41.38
2023-01-28T09:55:05.851Z,36.03
2023-01-28T10:02:39.084Z,43.10
2023-01-28T10:17:19.262Z,37.58
2023-01-28T10:24:44.462Z,44.30
2023-01-28T10:32:07.645Z,36.28
2023-01-28T10:39:27.113Z,34.78
2023-01-28T10:46:47.261Z,30.38
2023-01-28T10:54:15.599Z,33.28
2023-01-28T11:01:45.489Z,33.28
2023-01-28T11:09:05.781Z,34.05
2023-01-28T11:16:24.056Z,26.83
2023-01-28T11:23:50.996Z,24.45
2023-01-28T11:31:12.343Z,28.13
2023-01-28T11:38:30.629Z,29.10
2023-01-28T11:45:53.775Z,21.17
2023-01-28T11:54:00.515Z,20.48
2023-01-28T12:01:24.149Z,15.90
2023-01-28T12:08:46.211Z,18.88
2023-01-28T12:16:13.465Z,20.65
2023-01-28T12:23:52.804Z,15.30
2023-01-28T12:31:21.177Z,18.52
2023-01-28T12:38:46.231Z,15.68
2023-01-28T12:46:12.657Z,23.40
2023-01-28T12:53:35.138Z,25.58
2023-01-28T13:00:57.809Z,27.67
2023-01-28T13:08:21.331Z,24.50
2023-01-28T13:15:42.180Z,42.58
2023-01-28T13:23:04.316Z,24.17
2023-01-28T13:30:28.695Z,28.02
2023-01-28T13:37:47.368Z,27.75
2023-01-28T13:45:24.666Z,25.80
2023-01-28T13:52:45.883Z,25.50
2023-01-28T14:00:10.114Z,23.73
2023-01-28T14:08:15.489Z,17.65
2023-01-28T14:16:09.532Z,14.50
2023-01-28T14:23:31.417Z,17.67
2023-01-28T14:30:55.765Z,20.23
2023-01-28T14:38:20.159Z,16.40
2023-01-28T14:46:06.915Z,16.45
2023-01-28T14:53:50.215Z,12.70
2023-01-28T15:01:23.143Z,14.68
2023-01-28T15:08:44.252Z,18.00
2023-01-28T15:16:03.782Z,10.90
2023-01-28T15:23:29.717Z,18.60
2023-01-28T15:30:48.733Z,19.50
2023-01-28T15:38:07.982Z,14.63
2023-01-28T15:45:29.977Z,12.57
2023-01-28T15:52:50.750Z,25.60
2023-01-28T16:00:26.671Z,18.60
2023-01-28T16:07:47.861Z,17.60
2023-01-28T16:15:19.671Z,19.13
2023-01-28T16:22:39.944Z,20.40
2023-01-28T16:29:59.622Z,23.55
2023-01-28T16:37:18.345Z,24.90
2023-01-28T16:44:37.047Z,19.90
2023-01-28T16:51:58.079Z,16.60
2023-01-28T16:59:17.684Z,18.10
2023-01-28T17:06:37.412Z,13.80
2023-01-28T17:13:58.388Z,17.00
2023-01-28T17:21:17.100Z,22.13
2023-01-28T17:28:41.948Z,19.75
2023-01-28T17:36:14.248Z,15.20
2023-01-28T17:43:37.858Z,12.05
2023-01-28T17:51:03.962Z,16.70
2023-01-28T17:58:33.062Z,34.65
2023-01-28T18:06:08.120Z,25.67
2023-01-28T18:13:32.170Z,19.33
2023-01-28T18:20:58.458Z,21.30
2023-01-28T18:28:17.057Z,47.00
2023-01-28T18:35:42.802Z,17.00
2023-01-28T18:43:01.060Z,21.25
2023-01-28T18:50:19.601Z,26.55
2023-01-28T18:57:39.322Z,21.10
2023-01-28T19:04:57.617Z,23.05
2023-01-28T19:12:16.048Z,23.52
2023-01-28T19:19:41.359Z,13.18
2023-01-28T19:27:00.202Z,7.80
2023-01-28T19:34:18.634Z,8.98
2023-01-28T19:41:38.527Z,15.90
2023-01-28T19:48:57.002Z,12.85
2023-01-28T19:56:18.666Z,11.25
2023-01-28T20:03:38.878Z,18.67
2023-01-28T20:11:04.363Z,15.50
2023-01-28T20:18:22.684Z,13.52
2023-01-28T20:25:42.512Z,14.45
2023-01-28T20:33:00.762Z,12.50
2023-01-28T20:40:20.279Z,12.43
2023-01-28T20:47:40.309Z,17.77
2023-01-28T20:54:58.826Z,19.65
2023-01-28T21:02:17.241Z,26.20
2023-01-28T21:09:36.812Z,16.90
2023-01-28T21:16:54.982Z,18.83
2023-01-28T21:24:13.583Z,15.07
2023-01-28T21:31:33.403Z,12.55
2023-01-28T21:38:52.991Z,24.05
2023-01-28T21:46:11.186Z,79.93
2023-01-28T21:53:31.163Z,20.60
2023-01-28T22:00:49.441Z,18.23
2023-01-28T22:08:07.678Z,16.52
2023-01-28T22:15:27.695Z,20.45
2023-01-28T22:22:45.839Z,17.17
2023-01-28T22:30:04.141Z,14.73
2023-01-28T22:37:23.877Z,16.08
2023-01-28T22:44:42.153Z,14.25
2023-01-28T22:52:00.402Z,16.98
2023-01-28T22:59:20.005Z,24.02
2023-01-28T23:06:38.600Z,59.05
2023-01-28T23:14:16.576Z,16.63
2023-01-28T23:21:54.722Z,15.25
2023-01-28T23:29:13.151Z,13.77
2023-01-28T23:36:31.914Z,14.70
2023-01-28T23:43:51.994Z,11.35
2023-01-28T23:51:10.269Z,11.60
2023-01-28T23:58:42.744Z,13.13
